createdAt,value
2018-03-25T00:02:22.363Z,23.13
2018-03-25T00:04:51.599Z,23.04
2018-03-25T00:07:21.287Z,23.05
2018-03-25T00:09:50.819Z,23.01
2018-03-25T00:12:20.303Z,23.05
2018-03-25T00:14:49.670Z,22.95
2018-03-25T00:17:18.846Z,22.94
2018-03-25T00:19:48.420Z,22.94
2018-03-25T00:22:17.840Z,22.99
2018-03-25T00:24:47.205Z,23.01
2018-03-25T00:27:16.659Z,22.93
2018-03-25T00:29:46.256Z,22.97
2018-03-25T00:32:15.608Z,23.04
2018-03-25T00:34:45.069Z,22.89
2018-03-25T00:37:14.315Z,22.90
2018-03-25T00:39:43.763Z,22.91
2018-03-25T00:42:13.198Z,22.83
2018-03-25T00:44:42.365Z,22.87
2018-03-25T00:47:11.870Z,23.01
2018-03-25T00:49:41.103Z,22.93
2018-03-25T00:52:10.225Z,22.99
2018-03-25T00:54:39.578Z,22.98
2018-03-25T00:57:08.966Z,23.00
2018-03-25T00:59:38.129Z,23.03
2018-03-25T01:02:07.307Z,23.02
2018-03-25T01:04:36.665Z,23.05
2018-03-25T01:07:05.983Z,23.12
2018-03-25T01:09:35.080Z,23.18
2018-03-25T01:12:04.339Z,23.24
2018-03-25T01:14:33.773Z,23.36
2018-03-25T01:17:03.057Z,23.43
2018-03-25T01:19:32.307Z,23.52
2018-03-25T01:22:01.578Z,23.57
2018-03-25T01:24:30.617Z,23.62
2018-03-25T01:27:00.037Z,24.13
2018-03-25T01:29:29.972Z,24.42
2018-03-25T01:31:59.250Z,24.65
2018-03-25T01:34:28.651Z,24.60
2018-03-25T01:36:58.146Z,25.04
2018-03-25T01:39:27.577Z,25.21
2018-03-25T01:41:57.297Z,25.36
2018-03-25T01:44:26.736Z,25.71
2018-03-25T01:49:29.697Z,26.01
2018-03-25T01:51:59.199Z,26.16
2018-03-25T01:54:28.561Z,26.36
2018-03-25T01:56:57.887Z,26.49
2018-03-25T01:59:27.107Z,26.44
2018-03-25T02:01:56.569Z,26.62
2018-03-25T02:04:25.736Z,26.93
2018-03-25T02:06:55.481Z,26.96
2018-03-25T02:09:24.682Z,26.80
2018-03-25T02:11:53.869Z,27.19
2018-03-25T02:14:23.305Z,27.35
2018-03-25T02:16:52.752Z,27.72
2018-03-25T02:19:22.020Z,27.75
2018-03-25T02:21:51.517Z,27.83
2018-03-25T02:24:20.806Z,27.81
2018-03-25T02:26:50.060Z,27.75
2018-03-25T02:29:19.401Z,28.11
2018-03-25T02:31:48.631Z,28.45
2018-03-25T02:34:18.068Z,28.52
2018-03-25T02:36:47.644Z,28.42
2018-03-25T02:39:16.960Z,28.47
2018-03-25T02:41:46.651Z,28.59
2018-03-25T02:44:15.911Z,28.73
2018-03-25T02:46:45.071Z,29.31
2018-03-25T02:49:14.276Z,28.85
2018-03-25T02:51:43.240Z,28.81
2018-03-25T02:54:12.541Z,28.95
2018-03-25T02:56:41.744Z,29.34
2018-03-25T02:59:11.160Z,29.49
2018-03-25T03:01:40.475Z,29.45
2018-03-25T03:04:09.904Z,29.58
2018-03-25T03:06:39.166Z,29.68
2018-03-25T03:09:08.303Z,30.44
2018-03-25T03:11:37.832Z,29.42
2018-03-25T03:14:07.283Z,30.31
2018-03-25T03:16:36.765Z,29.93
2018-03-25T03:19:05.637Z,30.44
2018-03-25T03:21:34.950Z,30.29
2018-03-25T03:24:04.324Z,30.64
2018-03-25T03:26:33.640Z,30.90
2018-03-25T03:29:03.149Z,31.48
2018-03-25T03:31:32.449Z,31.40
2018-03-25T03:34:01.594Z,31.30
2018-03-25T03:36:30.846Z,31.70
2018-03-25T03:39:00.390Z,32.12
2018-03-25T03:41:29.826Z,32.04
2018-03-25T03:43:59.369Z,31.89
2018-03-25T03:46:28.772Z,31.75
2018-03-25T03:48:58.319Z,31.79
2018-03-25T03:51:27.745Z,31.95
2018-03-25T03:53:57.239Z,31.91
2018-03-25T03:56:26.721Z,31.98
2018-03-25T03:58:56.400Z,31.82
2018-03-25T04:01:25.748Z,32.20
2018-03-25T04:03:55.211Z,32.14
2018-03-25T04:06:24.735Z,32.30
2018-03-25T04:08:53.956Z,31.47
2018-03-25T04:11:23.272Z,31.38
2018-03-25T04:13:52.773Z,32.56
2018-03-25T04:16:22.114Z,32.27
2018-03-25T04:18:51.468Z,31.80
2018-03-25T04:21:20.886Z,32.34
2018-03-25T04:23:56.122Z,33.16
2018-03-25T04:26:25.449Z,33.50
2018-03-25T04:28:54.637Z,33.34
2018-03-25T04:31:24.314Z,32.89
2018-03-25T04:33:53.642Z,32.69
2018-03-25T04:36:23.117Z,32.16
2018-03-25T04:38:52.423Z,32.48
2018-03-25T04:41:21.766Z,32.33
2018-03-25T04:43:51.181Z,32.71
2018-03-25T04:46:20.260Z,32.95
2018-03-25T04:48:49.644Z,33.42
2018-03-25T04:51:18.941Z,33.26
2018-03-25T04:53:48.274Z,33.58
2018-03-25T04:56:17.600Z,33.39
2018-03-25T04:58:46.795Z,34.32
2018-03-25T05:01:16.289Z,33.95
2018-03-25T05:03:45.826Z,33.53
2018-03-25T05:06:15.093Z,34.61
2018-03-25T05:08:44.631Z,34.19
2018-03-25T05:11:14.078Z,34.29
2018-03-25T05:13:43.400Z,34.56
2018-03-25T05:16:12.635Z,34.40
2018-03-25T05:18:42.018Z,34.57
2018-03-25T05:21:11.191Z,34.24
2018-03-25T05:23:40.378Z,33.55
2018-03-25T05:26:09.558Z,33.62
2018-03-25T05:28:39.024Z,33.95
2018-03-25T05:31:08.747Z,33.81
2018-03-25T05:33:38.218Z,33.79
2018-03-25T05:36:07.576Z,34.14
2018-03-25T05:38:36.776Z,34.92
2018-03-25T05:41:06.094Z,34.62
2018-03-25T05:43:35.137Z,34.63
2018-03-25T05:46:03.923Z,34.37
2018-03-25T05:48:32.742Z,34.72
2018-03-25T05:51:01.899Z,34.79
2018-03-25T05:53:31.224Z,35.07
2018-03-25T05:56:00.517Z,34.64
2018-03-25T05:58:30.000Z,35.04
2018-03-25T06:00:59.385Z,35.46
2018-03-25T06:03:28.621Z,34.85
2018-03-25T06:05:58.137Z,35.49
2018-03-25T06:08:27.371Z,36.14
2018-03-25T06:10:56.106Z,36.26
2018-03-25T06:13:25.050Z,35.59
2018-03-25T06:15:54.041Z,35.59
2018-03-25T06:18:23.218Z,35.92
2018-03-25T06:20:52.466Z,36.41
2018-03-25T06:23:21.662Z,36.13
2018-03-25T06:25:51.071Z,36.16
2018-03-25T06:28:19.995Z,35.60
2018-03-25T06:30:49.231Z,35.74
2018-03-25T06:33:19.258Z,36.15
2018-03-25T06:35:48.560Z,35.48
2018-03-25T06:38:17.755Z,35.20
2018-03-25T06:40:46.896Z,35.86
2018-03-25T06:43:16.142Z,35.35
2018-03-25T06:45:45.768Z,35.66
2018-03-25T06:48:15.037Z,35.55
2018-03-25T06:50:44.210Z,34.91
2018-03-25T06:53:13.478Z,35.52
2018-03-25T06:55:42.188Z,35.27
2018-03-25T06:58:11.476Z,35.54
2018-03-25T07:00:40.285Z,35.95
2018-03-25T07:03:09.274Z,36.06
2018-03-25T07:05:38.618Z,35.73
2018-03-25T07:08:07.939Z,35.26
2018-03-25T07:10:37.432Z,35.54
2018-03-25T07:13:07.037Z,36.13
2018-03-25T07:15:36.484Z,36.28
2018-03-25T07:18:05.458Z,35.80
2018-03-25T07:20:35.259Z,35.89
2018-03-25T07:23:04.579Z,35.46
2018-03-25T07:25:34.046Z,35.80
2018-03-25T07:28:03.147Z,35.85
2018-03-25T07:30:32.218Z,36.32
2018-03-25T07:33:01.252Z,36.53
2018-03-25T07:35:30.954Z,36.29
2018-03-25T07:38:00.479Z,36.08
2018-03-25T07:40:29.673Z,36.14
2018-03-25T07:42:59.014Z,35.93
2018-03-25T07:45:27.922Z,36.42
2018-03-25T07:47:56.850Z,36.16
2018-03-25T07:50:25.673Z,35.31
2018-03-25T07:52:55.051Z,34.89
2018-03-25T07:55:24.417Z,35.20
2018-03-25T07:57:53.791Z,36.05
2018-03-25T08:00:25.210Z,36.45
2018-03-25T08:02:54.677Z,35.74
2018-03-25T08:05:24.082Z,36.06
2018-03-25T08:07:53.441Z,35.51
2018-03-25T08:10:22.570Z,35.41
2018-03-25T08:12:51.777Z,35.20
2018-03-25T08:15:21.042Z,35.18
2018-03-25T08:17:50.567Z,35.66
2018-03-25T08:20:19.802Z,35.43
2018-03-25T08:22:49.341Z,35.12
2018-03-25T08:25:18.633Z,34.57
2018-03-25T08:27:48.022Z,34.94
2018-03-25T08:30:17.207Z,35.30
2018-03-25T08:32:46.921Z,35.32
2018-03-25T08:35:16.144Z,35.17
2018-03-25T08:37:46.498Z,35.55
2018-03-25T08:40:16.218Z,35.01
2018-03-25T08:42:46.423Z,34.72
2018-03-25T08:45:16.049Z,34.83
2018-03-25T08:47:45.540Z,34.99
2018-03-25T08:50:15.388Z,34.85
2018-03-25T08:52:44.504Z,34.95
2018-03-25T08:55:14.104Z,34.39
2018-03-25T08:57:43.366Z,35.09
2018-03-25T09:00:12.931Z,34.95
2018-03-25T09:02:42.239Z,34.71
2018-03-25T09:05:11.273Z,34.42
2018-03-25T09:07:40.730Z,34.63
2018-03-25T09:10:09.881Z,35.03
2018-03-25T09:12:39.009Z,34.92
2018-03-25T09:15:08.758Z,34.71
2018-03-25T09:17:37.851Z,34.61
2018-03-25T09:20:06.982Z,34.87
2018-03-25T09:22:36.175Z,34.83
2018-03-25T09:25:05.752Z,34.95
2018-03-25T09:27:35.068Z,34.69
2018-03-25T09:30:04.279Z,34.68
2018-03-25T09:32:33.874Z,34.43
2018-03-25T09:35:04.407Z,34.13
2018-03-25T09:37:33.467Z,34.63
2018-03-25T09:40:02.563Z,35.04
2018-03-25T09:42:32.164Z,34.58
2018-03-25T09:45:01.285Z,34.44
2018-03-25T09:47:30.678Z,34.32
2018-03-25T09:49:59.715Z,34.30
2018-03-25T09:52:29.142Z,34.56
2018-03-25T09:54:58.596Z,34.09
2018-03-25T09:57:27.646Z,34.05
2018-03-25T09:59:56.904Z,34.22
2018-03-25T10:02:28.121Z,34.03
2018-03-25T10:04:57.136Z,34.44
2018-03-25T10:07:27.742Z,34.34
2018-03-25T10:09:57.047Z,34.10
2018-03-25T10:12:26.336Z,34.10
2018-03-25T10:14:55.858Z,34.27
2018-03-25T10:17:25.331Z,34.34
2018-03-25T10:19:54.503Z,34.12
2018-03-25T10:22:24.061Z,34.32
2018-03-25T10:24:53.908Z,34.18
2018-03-25T10:27:23.603Z,34.24
2018-03-25T10:29:53.099Z,34.33
2018-03-25T10:32:22.760Z,34.16
2018-03-25T10:34:51.959Z,34.02
2018-03-25T10:37:21.284Z,34.25
2018-03-25T10:39:50.813Z,34.16
2018-03-25T10:42:20.097Z,34.25
2018-03-25T10:44:49.489Z,34.06
2018-03-25T10:47:18.690Z,33.98
2018-03-25T10:49:48.166Z,34.05
2018-03-25T10:52:17.458Z,34.20
2018-03-25T10:54:46.869Z,33.92
2018-03-25T10:57:16.004Z,34.08
2018-03-25T10:59:45.592Z,33.98
2018-03-25T11:02:14.958Z,33.77
2018-03-25T11:04:44.513Z,33.80
2018-03-25T11:07:13.903Z,33.87
2018-03-25T11:09:42.889Z,33.94
2018-03-25T11:12:11.827Z,33.88
2018-03-25T11:14:41.174Z,33.75
2018-03-25T11:17:10.411Z,33.75
2018-03-25T11:19:39.807Z,33.84
2018-03-25T11:22:08.802Z,33.77
2018-03-25T11:24:38.152Z,33.79
2018-03-25T11:27:07.275Z,33.78
2018-03-25T11:29:36.373Z,33.76
2018-03-25T11:32:06.129Z,33.67
2018-03-25T11:34:35.266Z,33.61
2018-03-25T11:37:04.374Z,33.54
2018-03-25T11:39:33.541Z,33.55
2018-03-25T11:42:02.651Z,33.49
2018-03-25T11:44:31.876Z,33.30
2018-03-25T11:47:01.177Z,33.24
2018-03-25T11:49:31.480Z,33.32
2018-03-25T11:52:00.760Z,33.31
2018-03-25T11:54:30.076Z,33.31
2018-03-25T11:56:59.601Z,33.21
2018-03-25T11:59:28.592Z,33.24
2018-03-25T12:01:58.176Z,33.21
2018-03-25T12:04:27.665Z,33.09
2018-03-25T12:06:57.032Z,33.05
2018-03-25T12:09:26.278Z,33.03
2018-03-25T12:11:55.786Z,33.00
2018-03-25T12:14:24.830Z,32.94
2018-03-25T12:16:54.239Z,32.84
2018-03-25T12:19:23.619Z,32.68
2018-03-25T12:21:53.217Z,32.75
2018-03-25T12:24:22.423Z,32.68
2018-03-25T12:26:51.950Z,32.60
2018-03-25T12:29:21.477Z,32.55
2018-03-25T12:31:50.536Z,32.50
2018-03-25T12:34:20.116Z,32.50
2018-03-25T12:36:49.525Z,32.43
2018-03-25T12:39:18.802Z,32.34
2018-03-25T12:41:48.219Z,32.23
2018-03-25T12:44:17.555Z,32.16
2018-03-25T12:46:46.832Z,32.09
2018-03-25T12:49:16.108Z,32.02
2018-03-25T12:51:46.599Z,32.04
2018-03-25T12:54:15.971Z,31.94
2018-03-25T12:56:45.188Z,31.90
2018-03-25T12:59:14.644Z,31.82
2018-03-25T13:01:44.021Z,31.76
2018-03-25T13:04:13.370Z,31.68
2018-03-25T13:06:42.836Z,31.61
2018-03-25T13:09:12.144Z,31.57
2018-03-25T13:11:41.304Z,31.57
2018-03-25T13:14:10.944Z,31.53
2018-03-25T13:16:39.994Z,31.46
2018-03-25T13:19:09.442Z,31.36
2018-03-25T13:21:38.889Z,31.38
2018-03-25T13:24:08.399Z,31.31
2018-03-25T13:26:37.773Z,31.26
2018-03-25T13:29:07.175Z,31.19
2018-03-25T13:31:36.260Z,31.18
2018-03-25T13:34:05.780Z,31.13
2018-03-25T13:36:35.018Z,31.03
2018-03-25T13:39:04.613Z,30.89
2018-03-25T13:41:34.427Z,30.87
2018-03-25T13:44:04.147Z,30.89
2018-03-25T13:46:33.401Z,30.79
2018-03-25T13:49:03.005Z,30.76
2018-03-25T13:51:32.652Z,30.77
2018-03-25T13:54:01.662Z,30.68
2018-03-25T13:56:31.560Z,30.56
2018-03-25T13:59:01.061Z,30.43
2018-03-25T14:01:30.546Z,30.28
2018-03-25T14:03:59.772Z,30.18
2018-03-25T14:06:29.263Z,30.20
2018-03-25T14:08:58.572Z,30.14
2018-03-25T14:11:28.004Z,30.11
2018-03-25T14:13:57.293Z,30.08
2018-03-25T14:16:26.746Z,30.07
2018-03-25T14:18:56.056Z,30.02
2018-03-25T14:21:25.163Z,30.01
2018-03-25T14:23:54.346Z,30.01
2018-03-25T14:26:23.774Z,30.02
2018-03-25T14:28:52.870Z,30.03
2018-03-25T14:31:22.260Z,30.08
2018-03-25T14:33:52.046Z,29.92
2018-03-25T14:36:22.005Z,29.83
2018-03-25T14:38:51.302Z,29.87
2018-03-25T14:41:20.702Z,29.79
2018-03-25T14:43:50.222Z,29.69
2018-03-25T14:46:19.276Z,29.75
2018-03-25T14:48:48.852Z,29.79
2018-03-25T14:51:18.310Z,29.72
2018-03-25T14:53:47.541Z,29.72
2018-03-25T14:56:16.898Z,29.72
2018-03-25T14:58:47.408Z,29.46
2018-03-25T15:01:16.858Z,29.59
2018-03-25T15:03:45.910Z,29.58
2018-03-25T15:06:15.275Z,29.42
2018-03-25T15:08:44.690Z,29.56
2018-03-25T15:11:14.973Z,29.50
2018-03-25T15:13:44.339Z,29.54
2018-03-25T15:16:13.597Z,29.37
2018-03-25T15:18:42.723Z,29.32
2018-03-25T15:21:12.106Z,29.35
2018-03-25T15:23:41.482Z,29.29
2018-03-25T15:26:11.059Z,29.23
2018-03-25T15:28:40.316Z,29.25
2018-03-25T15:31:09.559Z,29.22
2018-03-25T15:33:38.762Z,29.25
2018-03-25T15:36:08.123Z,29.20
2018-03-25T15:38:38.524Z,29.18
2018-03-25T15:41:08.050Z,29.13
2018-03-25T15:43:37.383Z,28.94
2018-03-25T15:46:06.982Z,29.00
2018-03-25T15:48:36.412Z,28.95
2018-03-25T15:51:05.561Z,28.95
2018-03-25T15:53:35.086Z,28.97
2018-03-25T15:56:04.603Z,28.98
2018-03-25T15:58:33.911Z,28.93
2018-03-25T16:01:03.300Z,28.98
2018-03-25T16:03:32.709Z,29.00
2018-03-25T16:06:02.232Z,29.00
2018-03-25T16:08:31.827Z,28.84
2018-03-25T16:11:01.129Z,28.77
2018-03-25T16:13:30.566Z,28.61
2018-03-25T16:15:59.860Z,28.50
2018-03-25T16:18:29.238Z,28.54
2018-03-25T16:20:58.664Z,28.42
2018-03-25T16:23:28.065Z,28.35
2018-03-25T16:25:57.435Z,28.32
2018-03-25T16:28:26.638Z,28.25
2018-03-25T16:30:56.100Z,28.26
2018-03-25T16:33:25.373Z,28.11
2018-03-25T16:35:54.443Z,28.16
2018-03-25T16:38:23.947Z,28.04
2018-03-25T16:40:53.112Z,27.99
2018-03-25T16:43:22.306Z,27.99
2018-03-25T16:45:51.533Z,27.99
2018-03-25T16:48:20.803Z,27.90
2018-03-25T16:50:50.124Z,27.95
2018-03-25T16:53:19.201Z,27.91
2018-03-25T16:55:48.809Z,27.87
2018-03-25T16:58:18.219Z,27.76
2018-03-25T17:00:47.544Z,27.77
2018-03-25T17:03:17.055Z,27.71
2018-03-25T17:05:46.089Z,27.68
2018-03-25T17:08:15.398Z,27.64
2018-03-25T17:10:44.993Z,27.61
2018-03-25T17:13:14.550Z,27.56
2018-03-25T17:15:43.642Z,27.38
2018-03-25T17:18:13.024Z,27.46
2018-03-25T17:20:42.357Z,27.46
2018-03-25T17:23:17.711Z,27.47
2018-03-25T17:25:46.930Z,27.30
2018-03-25T17:28:16.246Z,27.31
2018-03-25T17:30:45.468Z,27.22
2018-03-25T17:33:14.799Z,27.22
2018-03-25T17:35:44.125Z,27.12
2018-03-25T17:38:13.126Z,27.09
2018-03-25T17:40:42.259Z,27.15
2018-03-25T17:43:11.684Z,27.16
2018-03-25T17:45:40.812Z,27.04
2018-03-25T17:48:09.915Z,27.07
2018-03-25T17:50:39.562Z,26.98
2018-03-25T17:53:08.738Z,26.91
2018-03-25T17:55:37.927Z,26.92
2018-03-25T17:58:07.253Z,26.92
2018-03-25T18:00:36.428Z,26.87
2018-03-25T18:03:05.878Z,26.85
2018-03-25T18:05:35.150Z,26.76
2018-03-25T18:08:04.225Z,26.65
2018-03-25T18:10:33.619Z,26.63
2018-03-25T18:13:03.024Z,26.63
2018-03-25T18:15:32.226Z,26.61
2018-03-25T18:18:01.708Z,26.65
2018-03-25T18:20:30.645Z,26.55
2018-03-25T18:23:00.192Z,26.51
2018-03-25T18:25:29.329Z,26.50
2018-03-25T18:27:58.812Z,26.49
2018-03-25T18:30:28.273Z,26.50
2018-03-25T18:32:57.561Z,26.45
2018-03-25T18:35:26.680Z,26.45
2018-03-25T18:37:56.208Z,26.42
2018-03-25T18:40:25.252Z,26.40
2018-03-25T18:42:54.602Z,26.31
2018-03-25T18:45:23.932Z,26.26
2018-03-25T18:47:53.087Z,26.22
2018-03-25T18:50:22.184Z,26.16
2018-03-25T18:52:52.103Z,26.21
2018-03-25T18:55:21.241Z,26.25
2018-03-25T18:57:50.855Z,26.30
2018-03-25T19:00:20.028Z,26.23
2018-03-25T19:02:49.105Z,26.28
2018-03-25T19:05:18.301Z,26.17
2018-03-25T19:07:47.593Z,26.20
2018-03-25T19:10:17.297Z,26.14
2018-03-25T19:12:46.567Z,26.16
2018-03-25T19:15:16.134Z,26.11
2018-03-25T19:17:45.418Z,26.09
2018-03-25T19:20:14.766Z,26.10
2018-03-25T19:22:43.865Z,25.94
2018-03-25T19:25:13.060Z,25.90
2018-03-25T19:27:42.670Z,25.92
2018-03-25T19:30:11.902Z,25.84
2018-03-25T19:32:41.402Z,25.81
2018-03-25T19:35:10.653Z,25.85
2018-03-25T19:37:40.308Z,25.79
2018-03-25T19:40:09.587Z,25.65
2018-03-25T19:42:39.048Z,25.57
2018-03-25T19:45:08.084Z,25.64
2018-03-25T19:47:37.137Z,25.63
2018-03-25T19:50:06.380Z,25.61
2018-03-25T19:52:35.393Z,25.54
2018-03-25T19:55:04.912Z,25.51
2018-03-25T19:57:34.324Z,25.44
2018-03-25T20:00:03.500Z,25.42
2018-03-25T20:02:32.827Z,25.47
2018-03-25T20:05:02.129Z,25.39
2018-03-25T20:07:31.469Z,25.39
2018-03-25T20:10:00.872Z,25.31
2018-03-25T20:12:30.354Z,25.22
2018-03-25T20:14:59.865Z,25.24
2018-03-25T20:17:29.262Z,25.22
2018-03-25T20:19:58.679Z,25.29
2018-03-25T20:22:27.913Z,25.31
2018-03-25T20:24:57.221Z,25.28
2018-03-25T20:27:26.332Z,25.28
2018-03-25T20:29:55.404Z,25.33
2018-03-25T20:32:24.697Z,25.21
2018-03-25T20:34:54.312Z,25.31
2018-03-25T20:37:23.788Z,25.31
2018-03-25T20:39:53.001Z,25.25
2018-03-25T20:42:22.001Z,25.31
2018-03-25T20:44:51.468Z,25.22
2018-03-25T20:47:21.012Z,25.21
2018-03-25T20:49:50.117Z,25.28
2018-03-25T20:52:19.451Z,25.25
2018-03-25T20:54:48.807Z,25.24
2018-03-25T20:57:18.017Z,25.24
2018-03-25T20:59:47.088Z,25.22
2018-03-25T21:02:16.498Z,25.16
2018-03-25T21:04:45.771Z,25.18
2018-03-25T21:07:15.074Z,25.23
2018-03-25T21:09:44.305Z,25.31
2018-03-25T21:12:13.485Z,25.22
2018-03-25T21:14:42.864Z,25.18
2018-03-25T21:17:12.395Z,25.14
2018-03-25T21:19:41.914Z,25.10
2018-03-25T21:22:11.351Z,24.97
2018-03-25T21:24:41.008Z,24.91
2018-03-25T21:27:10.340Z,24.94
2018-03-25T21:29:39.520Z,24.90
2018-03-25T21:32:08.781Z,24.87
2018-03-25T21:34:38.184Z,24.79
2018-03-25T21:37:07.395Z,24.72
2018-03-25T21:39:36.669Z,24.67
2018-03-25T21:42:05.990Z,24.46
2018-03-25T21:44:35.595Z,24.36
2018-03-25T21:47:04.588Z,24.46
2018-03-25T21:49:33.667Z,24.40
2018-03-25T21:52:02.875Z,24.45
2018-03-25T21:54:32.199Z,24.43
2018-03-25T21:57:02.615Z,24.40
2018-03-25T21:59:32.046Z,24.37
2018-03-25T22:02:01.054Z,24.28
2018-03-25T22:04:30.469Z,24.23
2018-03-25T22:07:00.028Z,24.07
2018-03-25T22:09:29.240Z,24.12
2018-03-25T22:11:58.327Z,24.09
2018-03-25T22:14:27.651Z,24.10
2018-03-25T22:16:56.762Z,24.12
2018-03-25T22:19:26.018Z,24.06
2018-03-25T22:21:55.348Z,24.07
2018-03-25T22:24:24.560Z,24.10
2018-03-25T22:26:54.044Z,24.13
2018-03-25T22:29:23.425Z,24.02
2018-03-25T22:31:52.372Z,24.05
2018-03-25T22:34:21.389Z,24.02
2018-03-25T22:36:50.319Z,24.05
2018-03-25T22:39:19.322Z,23.95
2018-03-25T22:41:48.529Z,23.87
2018-03-25T22:44:17.523Z,23.81
2018-03-25T22:46:47.046Z,23.87
2018-03-25T22:49:16.271Z,23.87
2018-03-25T22:51:45.389Z,23.80
2018-03-25T22:54:14.596Z,23.87
2018-03-25T22:56:44.024Z,23.78
2018-03-25T22:59:13.080Z,23.77
2018-03-25T23:01:42.167Z,23.79
2018-03-25T23:04:11.413Z,23.75
2018-03-25T23:06:40.622Z,23.86
2018-03-25T23:09:09.562Z,23.87
2018-03-25T23:11:38.684Z,23.87
2018-03-25T23:14:08.670Z,23.77
2018-03-25T23:16:38.094Z,23.76
2018-03-25T23:19:07.364Z,23.80
2018-03-25T23:21:36.749Z,23.80
2018-03-25T23:24:05.841Z,23.78
2018-03-25T23:26:35.375Z,23.84
2018-03-25T23:29:04.565Z,23.81
2018-03-25T23:31:33.568Z,23.76
2018-03-25T23:34:03.179Z,23.75
2018-03-25T23:36:32.425Z,23.72
2018-03-25T23:39:01.471Z,23.68
2018-03-25T23:41:30.727Z,23.62
2018-03-25T23:44:00.249Z,23.66
2018-03-25T23:46:29.395Z,23.67
2018-03-25T23:48:59.219Z,23.55
2018-03-25T23:51:28.451Z,23.55
2018-03-25T23:53:57.731Z,23.46
2018-03-25T23:56:27.211Z,23.46
2018-03-25T23:58:56.484Z,23.44
